Time;durP1;ratioP1;P1;durP2;ratioP2;P2;SDS_P1;SDS_P2;PMS_P1;PMS_P2;Temp;Humidity;BMP_temperature;BMP_pressure;BME280_temperature;BME280_humidity;BME280_pressure;Samples;Min_cycle;Max_cycle;Signal;HPM_P1;HPM_P2
2023/12/03 00:02:05;;;;;;;20.90;12.82;;;;;;;;;;5014239;28;20050;-61
2023/12/03 00:04:30;;;;;;;19.17;12.27;;;;;;;;;;5014819;28;20360;-61
2023/12/03 00:06:55;;;;;;;16.80;10.18;;;;;;;;;;5014348;28;20368;-61
2023/12/03 00:09:21;;;;;;;14.27;9.35;;;;;;;;;;5014550;28;20071;-61
2023/12/03 00:11:46;;;;;;;15.70;9.32;;;;;;;;;;4996638;28;20030;-61
2023/12/03 00:14:12;;;;;;;18.08;10.68;;;;;;;;;;5014785;28;20058;-61
2023/12/03 00:16:37;;;;;;;18.15;10.27;;;;;;;;;;5013990;28;20018;-61
2023/12/03 00:19:03;;;;;;;24.95;12.27;;;;;;;;;;5014654;28;20022;-61
2023/12/03 00:21:28;;;;;;;20.10;12.57;;;;;;;;;;5014043;28;20037;-61
2023/12/03 00:23:54;;;;;;;19.98;11.23;;;;;;;;;;5014976;28;20021;-61
2023/12/03 00:26:19;;;;;;;25.25;12.65;;;;;;;;;;5014378;28;20017;-61
2023/12/03 00:28:45;;;;;;;20.80;11.57;;;;;;;;;;5014064;28;20034;-61
2023/12/03 00:31:10;;;;;;;22.55;13.02;;;;;;;;;;5014582;28;20416;-61
2023/12/03 00:33:36;;;;;;;19.20;10.65;;;;;;;;;;5014672;28;20026;-61
2023/12/03 00:36:01;;;;;;;24.67;13.02;;;;;;;;;;5014645;28;20124;-60
2023/12/03 00:38:27;;;;;;;23.05;12.40;;;;;;;;;;5012763;28;20065;-60
2023/12/03 00:40:52;;;;;;;23.95;13.73;;;;;;;;;;5013966;28;20026;-59
2023/12/03 00:43:17;;;;;;;28.58;15.65;;;;;;;;;;5012523;28;20057;-60
2023/12/03 00:45:43;;;;;;;29.00;15.55;;;;;;;;;;5015442;28;20121;-60
2023/12/03 00:48:08;;;;;;;27.45;12.20;;;;;;;;;;5018205;28;20022;-60
2023/12/03 00:50:33;;;;;;;23.08;12.60;;;;;;;;;;5018298;28;20117;-62
2023/12/03 00:52:59;;;;;;;21.60;12.30;;;;;;;;;;5018095;28;20121;-61
2023/12/03 00:55:24;;;;;;;25.98;13.02;;;;;;;;;;5017866;28;20132;-62
2023/12/03 00:57:50;;;;;;;29.00;13.63;;;;;;;;;;5017616;28;20084;-61
2023/12/03 01:00:16;;;;;;;34.10;16.77;;;;;;;;;;5017861;28;20488;-62
2023/12/03 01:02:41;;;;;;;25.33;14.15;;;;;;;;;;5018123;28;20477;-62
2023/12/03 01:05:07;;;;;;;29.73;14.90;;;;;;;;;;5017729;28;20044;-62
2023/12/03 01:07:32;;;;;;;29.48;15.52;;;;;;;;;;5017853;28;20029;-63
2023/12/03 01:09:58;;;;;;;29.15;15.27;;;;;;;;;;5000651;28;20421;-65
2023/12/03 01:12:24;;;;;;;29.08;14.48;;;;;;;;;;5018034;28;20024;-65
2023/12/03 01:14:49;;;;;;;26.88;15.27;;;;;;;;;;5017711;28;20084;-63
2023/12/03 01:17:15;;;;;;;33.17;17.52;;;;;;;;;;5017376;28;20026;-65
2023/12/03 01:19:40;;;;;;;29.85;16.10;;;;;;;;;;4999924;28;20021;-64
2023/12/03 01:22:06;;;;;;;39.63;18.63;;;;;;;;;;5017748;28;20037;-65
2023/12/03 01:24:31;;;;;;;36.60;18.30;;;;;;;;;;4999716;28;20030;-66
2023/12/03 01:26:56;;;;;;;32.08;17.60;;;;;;;;;;5002758;28;20604;-66
2023/12/03 01:29:22;;;;;;;36.92;17.65;;;;;;;;;;4998079;28;20026;-65
2023/12/03 01:31:47;;;;;;;34.30;18.27;;;;;;;;;;4980691;28;20030;-64
2023/12/03 01:34:13;;;;;;;32.30;16.88;;;;;;;;;;4997330;28;20468;-64
2023/12/03 01:36:38;;;;;;;30.30;15.20;;;;;;;;;;4997520;28;20022;-64
2023/12/03 01:39:05;;;;;;;30.23;15.63;;;;;;;;;;4997664;28;20065;-64
2023/12/03 01:41:30;;;;;;;26.92;14.45;;;;;;;;;;4997788;28;20038;-64
2023/12/03 01:43:56;;;;;;;31.63;16.33;;;;;;;;;;4997150;28;20049;-64
2023/12/03 01:46:21;;;;;;;29.20;15.65;;;;;;;;;;5017765;23;20124;-63
2023/12/03 01:48:47;;;;;;;28.33;15.43;;;;;;;;;;5016751;28;20460;-63
2023/12/03 01:51:13;;;;;;;28.15;14.98;;;;;;;;;;5016827;28;20034;-63
2023/12/03 01:53:39;;;;;;;30.95;16.52;;;;;;;;;;5016675;28;20022;-61
2023/12/03 01:56:05;;;;;;;31.08;16.08;;;;;;;;;;5016819;28;20124;-60
2023/12/03 01:58:32;;;;;;;28.92;15.98;;;;;;;;;;5015832;28;20045;-61
2023/12/03 02:00:58;;;;;;;29.55;15.63;;;;;;;;;;5016692;28;20142;-60
2023/12/03 02:03:24;;;;;;;32.83;16.85;;;;;;;;;;5016737;28;20108;-60
2023/12/03 02:06:04;;;;;;;35.33;19.00;;;;;;;;;;5015121;28;20124;-60
2023/12/03 02:08:29;;;;;;;29.33;16.33;;;;;;;;;;5016473;28;20030;-60
2023/12/03 02:10:55;;;;;;;29.73;15.82;;;;;;;;;;5016662;28;20116;-60
2023/12/03 02:13:20;;;;;;;23.52;14.15;;;;;;;;;;5016474;28;20091;-60
2023/12/03 02:15:46;;;;;;;27.52;15.65;;;;;;;;;;5016788;28;20400;-61
2023/12/03 02:18:11;;;;;;;29.70;17.48;;;;;;;;;;5016206;28;20060;-62
2023/12/03 02:20:36;;;;;;;33.10;17.27;;;;;;;;;;5016369;28;20132;-61
2023/12/03 02:23:02;;;;;;;32.20;18.35;;;;;;;;;;4998989;28;20037;-61
2023/12/03 02:25:27;;;;;;;32.00;17.50;;;;;;;;;;4998614;28;20022;-61
2023/12/03 02:27:53;;;;;;;28.27;15.45;;;;;;;;;;5016049;28;20057;-61
2023/12/03 02:30:18;;;;;;;32.65;18.38;;;;;;;;;;5016472;28;20030;-62
2023/12/03 02:32:44;;;;;;;28.55;15.73;;;;;;;;;;5015946;28;20022;-62
2023/12/03 02:35:09;;;;;;;28.55;14.52;;;;;;;;;;4998929;28;20176;-62
2023/12/03 02:37:34;;;;;;;26.05;15.07;;;;;;;;;;5015764;28;20041;-62
2023/12/03 02:40:00;;;;;;;26.15;15.57;;;;;;;;;;5015986;28;20040;-62
2023/12/03 02:42:25;;;;;;;27.23;13.75;;;;;;;;;;5015958;28;20104;-62
2023/12/03 02:44:50;;;;;;;25.80;15.05;;;;;;;;;;5016156;28;20112;-62
2023/12/03 02:47:16;;;;;;;21.60;12.55;;;;;;;;;;5015522;28;20034;-62
2023/12/03 02:49:41;;;;;;;21.23;12.52;;;;;;;;;;5015700;28;20066;-62
2023/12/03 02:52:06;;;;;;;19.63;12.35;;;;;;;;;;5015809;28;20026;-62
2023/12/03 02:54:32;;;;;;;17.80;12.35;;;;;;;;;;5015763;28;20037;-61
2023/12/03 02:56:57;;;;;;;19.92;12.73;;;;;;;;;;4997918;28;20145;-62
2023/12/03 02:59:25;;;;;;;18.55;11.98;;;;;;;;;;5016051;28;20038;-62
2023/12/03 03:01:50;;;;;;;21.05;12.63;;;;;;;;;;5015684;28;20388;-61
2023/12/03 03:04:16;;;;;;;18.88;12.15;;;;;;;;;;5015648;28;20097;-61
2023/12/03 03:06:41;;;;;;;16.35;10.80;;;;;;;;;;5015647;28;20097;-61
2023/12/03 03:09:07;;;;;;;21.23;12.15;;;;;;;;;;4997500;28;20022;-61
2023/12/03 03:11:32;;;;;;;15.65;10.00;;;;;;;;;;5015231;28;20522;-61
2023/12/03 03:13:58;;;;;;;15.10;10.35;;;;;;;;;;5015110;28;20080;-61
2023/12/03 03:16:26;;;;;;;16.73;9.52;;;;;;;;;;5013833;28;20041;-61
2023/12/03 03:18:52;;;;;;;13.93;9.63;;;;;;;;;;5015364;28;20065;-61
2023/12/03 03:21:17;;;;;;;16.42;10.25;;;;;;;;;;4997840;28;20043;-61
2023/12/03 03:23:43;;;;;;;17.58;10.75;;;;;;;;;;5014927;28;20579;-61
2023/12/03 03:26:08;;;;;;;16.80;10.10;;;;;;;;;;5015199;28;20057;-61
2023/12/03 03:28:36;;;;;;;13.93;10.00;;;;;;;;;;5014004;28;20034;-61
2023/12/03 03:31:02;;;;;;;17.63;11.02;;;;;;;;;;5015072;28;20029;-61
2023/12/03 03:33:27;;;;;;;14.25;9.10;;;;;;;;;;5014965;28;20056;-61
2023/12/03 03:35:52;;;;;;;11.60;8.48;;;;;;;;;;5014865;28;20025;-61
2023/12/03 03:38:18;;;;;;;11.93;8.82;;;;;;;;;;5014666;28;20052;-61
2023/12/03 03:40:43;;;;;;;10.73;8.38;;;;;;;;;;5014708;28;20037;-61
2023/12/03 03:43:09;;;;;;;10.80;8.23;;;;;;;;;;5015177;28;20042;-61
2023/12/03 03:45:34;;;;;;;11.07;8.18;;;;;;;;;;5013081;28;20037;-62
2023/12/03 03:47:59;;;;;;;11.23;7.75;;;;;;;;;;5014458;28;20032;-62
2023/12/03 03:50:25;;;;;;;10.68;7.60;;;;;;;;;;5014836;28;20044;-60
2023/12/03 03:52:50;;;;;;;9.73;7.00;;;;;;;;;;5014641;28;20117;-61
2023/12/03 03:55:16;;;;;;;10.77;7.35;;;;;;;;;;5014706;28;20116;-62
2023/12/03 03:57:41;;;;;;;11.65;7.90;;;;;;;;;;5014896;28;20064;-62
2023/12/03 04:00:07;;;;;;;10.70;8.05;;;;;;;;;;4996933;28;20034;-61
2023/12/03 04:02:37;;;;;;;11.20;7.20;;;;;;;;;;5014464;28;20034;-62
2023/12/03 04:05:02;;;;;;;8.85;6.70;;;;;;;;;;5014724;28;20045;-62
2023/12/03 04:07:28;;;;;;;11.25;6.82;;;;;;;;;;5014273;28;20037;-62
2023/12/03 04:09:53;;;;;;;9.85;7.82;;;;;;;;;;5014688;28;20048;-62
2023/12/03 04:12:19;;;;;;;9.48;6.75;;;;;;;;;;5014568;28;20026;-62
2023/12/03 04:14:44;;;;;;;9.82;7.05;;;;;;;;;;5014089;28;20528;-62
2023/12/03 04:17:10;;;;;;;9.23;6.63;;;;;;;;;;4997020;28;20038;-63
2023/12/03 04:19:35;;;;;;;9.80;6.80;;;;;;;;;;4996244;28;20380;-61
2023/12/03 04:22:01;;;;;;;9.93;7.13;;;;;;;;;;5014088;28;20392;-62
2023/12/03 04:24:26;;;;;;;9.02;6.22;;;;;;;;;;5014518;28;20080;-62
2023/12/03 04:26:52;;;;;;;8.05;6.47;;;;;;;;;;4996949;28;20465;-62
2023/12/03 04:29:17;;;;;;;10.90;7.97;;;;;;;;;;4996590;28;20104;-62
2023/12/03 04:31:43;;;;;;;8.80;6.93;;;;;;;;;;4996652;28;20038;-63
2023/12/03 04:34:08;;;;;;;9.20;6.82;;;;;;;;;;5014149;28;20030;-62
2023/12/03 04:36:34;;;;;;;8.75;7.15;;;;;;;;;;5014655;28;20033;-61
2023/12/03 04:38:59;;;;;;;8.63;6.43;;;;;;;;;;5013804;28;20030;-61
2023/12/03 04:41:33;;;;;;;8.45;6.63;;;;;;;;;;4996107;28;20076;-61
2023/12/03 04:43:58;;;;;;;7.30;6.15;;;;;;;;;;5013914;28;20042;-60
2023/12/03 04:46:23;;;;;;;8.98;6.28;;;;;;;;;;5013367;28;20049;-61
2023/12/03 04:48:49;;;;;;;9.32;6.57;;;;;;;;;;5014421;28;20361;-61
2023/12/03 04:51:14;;;;;;;7.55;5.97;;;;;;;;;;5013441;28;20026;-62
2023/12/03 04:53:40;;;;;;;7.63;6.30;;;;;;;;;;5014256;28;20080;-62
2023/12/03 04:56:05;;;;;;;6.55;5.78;;;;;;;;;;4996557;28;20129;-62
2023/12/03 04:58:31;;;;;;;8.13;6.55;;;;;;;;;;5013870;28;20108;-62
2023/12/03 05:00:56;;;;;;;8.23;6.40;;;;;;;;;;5013652;28;20044;-62
2023/12/03 05:03:21;;;;;;;7.60;6.28;;;;;;;;;;5013582;28;20037;-61
2023/12/03 05:05:47;;;;;;;6.75;6.07;;;;;;;;;;4980076;28;20084;-62
2023/12/03 05:08:12;;;;;;;9.23;7.30;;;;;;;;;;4996713;28;20047;-61
2023/12/03 05:10:38;;;;;;;11.35;9.05;;;;;;;;;;5013761;28;20018;-62
2023/12/03 05:13:03;;;;;;;9.50;8.05;;;;;;;;;;5012993;28;20088;-59
2023/12/03 05:15:28;;;;;;;9.75;7.63;;;;;;;;;;4996314;28;20468;-60
2023/12/03 05:17:54;;;;;;;12.27;8.38;;;;;;;;;;5013436;28;20038;-60
2023/12/03 05:20:20;;;;;;;7.60;6.25;;;;;;;;;;5013783;28;20042;-59
2023/12/03 05:22:45;;;;;;;6.65;6.03;;;;;;;;;;5013393;28;20480;-60
2023/12/03 05:25:12;;;;;;;6.63;6.00;;;;;;;;;;5014135;28;20028;-65
2023/12/03 05:27:37;;;;;;;8.98;7.38;;;;;;;;;;5013895;28;20057;-65
2023/12/03 05:30:03;;;;;;;8.38;6.72;;;;;;;;;;5014026;28;20026;-65
2023/12/03 05:32:29;;;;;;;6.65;6.15;;;;;;;;;;4997846;28;20054;-65
2023/12/03 05:34:54;;;;;;;6.05;5.45;;;;;;;;;;4999067;28;20480;-64
2023/12/03 05:37:20;;;;;;;7.25;6.07;;;;;;;;;;5017415;28;20026;-64
2023/12/03 05:39:46;;;;;;;7.45;5.90;;;;;;;;;;5016595;28;20069;-65
2023/12/03 05:42:12;;;;;;;5.35;4.88;;;;;;;;;;5017323;28;20049;-65
2023/12/03 05:44:38;;;;;;;7.25;6.10;;;;;;;;;;4999268;28;20029;-65
2023/12/03 05:47:03;;;;;;;7.40;6.53;;;;;;;;;;5016315;28;20033;-65
2023/12/03 05:49:29;;;;;;;6.10;5.50;;;;;;;;;;4992157;28;20065;-65
2023/12/03 05:51:54;;;;;;;5.95;5.18;;;;;;;;;;4992977;28;20109;-65
2023/12/03 05:54:19;;;;;;;6.50;5.55;;;;;;;;;;5007949;28;20062;-65
2023/12/03 05:56:45;;;;;;;7.15;5.53;;;;;;;;;;5004875;28;20484;-65
2023/12/03 05:59:11;;;;;;;7.53;6.75;;;;;;;;;;5011125;28;20086;-65
2023/12/03 06:01:37;;;;;;;6.10;5.18;;;;;;;;;;4999492;28;20041;-65
2023/12/03 06:04:06;;;;;;;6.97;5.18;;;;;;;;;;5014297;28;20465;-65
2023/12/03 06:06:32;;;;;;;6.75;4.85;;;;;;;;;;5004722;28;20045;-65
2023/12/03 06:08:57;;;;;;;5.38;4.88;;;;;;;;;;5006579;28;20018;-65
2023/12/03 06:11:22;;;;;;;5.03;4.50;;;;;;;;;;4995802;28;20042;-65
2023/12/03 06:13:48;;;;;;;5.65;4.75;;;;;;;;;;5013395;28;20038;-66
2023/12/03 06:16:13;;;;;;;5.85;4.57;;;;;;;;;;5010129;28;20033;-65
2023/12/03 06:18:39;;;;;;;6.78;5.25;;;;;;;;;;5009122;28;20038;-65
2023/12/03 06:21:04;;;;;;;5.38;4.85;;;;;;;;;;5016339;28;20053;-65
2023/12/03 06:23:30;;;;;;;6.10;5.13;;;;;;;;;;5016563;28;20032;-65
2023/12/03 06:25:55;;;;;;;9.07;5.78;;;;;;;;;;5016496;28;20034;-67
2023/12/03 06:28:20;;;;;;;9.93;6.22;;;;;;;;;;5016366;28;20064;-66
2023/12/03 06:30:47;;;;;;;6.95;5.00;;;;;;;;;;5016499;28;20055;-67
2023/12/03 06:33:14;;;;;;;8.77;6.35;;;;;;;;;;5016357;28;20056;-65
2023/12/03 06:35:40;;;;;;;10.63;7.30;;;;;;;;;;5004330;28;20041;-65
2023/12/03 06:38:08;;;;;;;12.00;5.95;;;;;;;;;;5007410;28;20030;-65
2023/12/03 06:40:33;;;;;;;11.45;6.22;;;;;;;;;;5014820;28;20133;-64
2023/12/03 06:42:58;;;;;;;10.15;5.82;;;;;;;;;;4999095;28;20117;-65
2023/12/03 06:45:24;;;;;;;9.45;5.18;;;;;;;;;;4996412;28;20077;-65
2023/12/03 06:47:49;;;;;;;7.72;5.50;;;;;;;;;;4978891;28;20058;-64
2023/12/03 06:50:15;;;;;;;7.30;5.22;;;;;;;;;;4996404;28;20030;-65
2023/12/03 06:52:41;;;;;;;7.85;4.70;;;;;;;;;;4996225;28;20030;-65
2023/12/03 06:55:06;;;;;;;7.00;4.85;;;;;;;;;;4996205;28;20377;-65
2023/12/03 06:57:32;;;;;;;7.50;5.75;;;;;;;;;;4980990;28;20030;-65
2023/12/03 06:59:57;;;;;;;6.55;5.32;;;;;;;;;;4996230;28;20449;-65
2023/12/03 07:02:24;;;;;;;8.40;4.57;;;;;;;;;;4996275;28;20477;-65
2023/12/03 07:04:49;;;;;;;5.70;4.78;;;;;;;;;;4993407;23;20042;-59
2023/12/03 07:07:14;;;;;;;5.78;4.47;;;;;;;;;;5013751;28;20428;-64
2023/12/03 07:09:40;;;;;;;5.65;4.82;;;;;;;;;;4997245;28;20456;-65
2023/12/03 07:12:06;;;;;;;5.95;5.13;;;;;;;;;;5015231;28;20100;-65
2023/12/03 07:14:35;;;;;;;9.05;5.32;;;;;;;;;;5015010;28;20026;-62
2023/12/03 07:17:01;;;;;;;7.05;5.25;;;;;;;;;;5013887;28;20034;-64
2023/12/03 07:19:26;;;;;;;7.72;5.88;;;;;;;;;;5014727;28;20542;-64
2023/12/03 07:21:51;;;;;;;7.13;5.38;;;;;;;;;;4997147;28;20022;-64
2023/12/03 07:24:17;;;;;;;6.72;4.95;;;;;;;;;;4997546;28;20373;-63
2023/12/03 07:26:42;;;;;;;6.43;5.10;;;;;;;;;;5014198;28;20084;-65
2023/12/03 07:29:08;;;;;;;7.72;6.07;;;;;;;;;;5014510;28;20022;-63
2023/12/03 07:31:33;;;;;;;5.80;4.40;;;;;;;;;;5014594;28;20548;-62
2023/12/03 07:33:59;;;;;;;4.97;4.47;;;;;;;;;;5014638;28;20021;-65
2023/12/03 07:36:25;;;;;;;5.28;4.78;;;;;;;;;;5014505;28;20469;-65
2023/12/03 07:38:51;;;;;;;6.68;5.25;;;;;;;;;;5014598;28;20440;-65
2023/12/03 07:41:16;;;;;;;5.72;5.13;;;;;;;;;;5014670;28;20029;-64
2023/12/03 07:43:41;;;;;;;5.80;5.25;;;;;;;;;;4997586;28;20022;-69
2023/12/03 07:46:07;;;;;;;5.95;4.90;;;;;;;;;;5014372;28;20404;-59
2023/12/03 07:48:34;;;;;;;5.65;4.82;;;;;;;;;;5013865;28;20021;-58
2023/12/03 07:50:59;;;;;;;5.10;4.28;;;;;;;;;;5014055;28;20034;-59
2023/12/03 07:53:25;;;;;;;5.60;4.97;;;;;;;;;;5014308;28;20037;-59
2023/12/03 07:55:50;;;;;;;5.75;4.80;;;;;;;;;;5011903;28;20034;-59
2023/12/03 07:58:16;;;;;;;7.53;5.45;;;;;;;;;;5013954;28;20053;-59
2023/12/03 08:00:41;;;;;;;5.63;5.07;;;;;;;;;;5014221;28;20036;-59
2023/12/03 08:03:06;;;;;;;6.47;5.22;;;;;;;;;;4996858;28;20038;-59
2023/12/03 08:05:32;;;;;;;6.55;5.85;;;;;;;;;;5013971;28;20046;-59
2023/12/03 08:07:58;;;;;;;5.43;4.60;;;;;;;;;;5014426;28;20046;-59
2023/12/03 08:10:24;;;;;;;6.63;5.80;;;;;;;;;;5014510;28;20018;-59
2023/12/03 08:12:49;;;;;;;5.70;5.15;;;;;;;;;;5014392;28;20037;-59
2023/12/03 08:15:15;;;;;;;6.70;4.88;;;;;;;;;;5014176;28;20052;-59
2023/12/03 08:17:40;;;;;;;6.63;5.93;;;;;;;;;;5013977;28;20034;-59
2023/12/03 08:20:06;;;;;;;6.05;5.40;;;;;;;;;;5014046;28;20034;-60
2023/12/03 08:22:31;;;;;;;7.32;6.07;;;;;;;;;;5014605;28;20080;-59
2023/12/03 08:24:57;;;;;;;6.30;5.15;;;;;;;;;;5013264;28;20511;-59
2023/12/03 08:27:22;;;;;;;8.50;5.13;;;;;;;;;;5014578;28;20026;-60
2023/12/03 08:29:48;;;;;;;6.85;5.07;;;;;;;;;;5014216;28;20018;-59
2023/12/03 08:32:13;;;;;;;6.00;4.85;;;;;;;;;;5014227;28;20065;-60
2023/12/03 08:34:39;;;;;;;5.35;4.82;;;;;;;;;;5013729;28;20468;-60
2023/12/03 08:37:04;;;;;;;6.97;5.28;;;;;;;;;;5013403;28;20396;-60
2023/12/03 08:39:31;;;;;;;5.97;5.38;;;;;;;;;;5013849;28;20057;-60
2023/12/03 08:41:57;;;;;;;5.78;5.13;;;;;;;;;;5013852;28;20045;-60
2023/12/03 08:44:22;;;;;;;6.07;4.72;;;;;;;;;;5014244;28;20037;-59
2023/12/03 08:46:48;;;;;;;7.43;5.38;;;;;;;;;;5013970;28;20452;-60
2023/12/03 08:49:14;;;;;;;8.32;5.70;;;;;;;;;;5013761;28;20085;-59
2023/12/03 08:51:39;;;;;;;7.65;6.03;;;;;;;;;;5013563;28;20030;-60
2023/12/03 08:54:05;;;;;;;5.65;4.85;;;;;;;;;;5013027;28;20034;-60
2023/12/03 08:56:30;;;;;;;6.68;5.13;;;;;;;;;;5013279;28;20368;-60
2023/12/03 08:58:55;;;;;;;7.18;6.28;;;;;;;;;;5012749;28;20026;-60
2023/12/03 09:01:21;;;;;;;8.20;5.45;;;;;;;;;;5012641;28;20030;-60
2023/12/03 09:03:48;;;;;;;6.78;5.65;;;;;;;;;;5012888;28;20033;-60
2023/12/03 09:06:14;;;;;;;7.10;5.40;;;;;;;;;;5013245;28;20041;-60
2023/12/03 09:08:39;;;;;;;7.10;5.55;;;;;;;;;;4999026;28;20448;-60
2023/12/03 09:11:06;;;;;;;6.90;6.20;;;;;;;;;;5016675;28;20026;-60
2023/12/03 09:13:32;;;;;;;9.13;6.47;;;;;;;;;;5016603;28;20056;-60
2023/12/03 09:15:57;;;;;;;8.18;6.35;;;;;;;;;;5017358;28;20427;-60
2023/12/03 09:18:23;;;;;;;8.20;6.45;;;;;;;;;;5000041;28;20041;-60
2023/12/03 09:20:52;;;;;;;7.22;5.72;;;;;;;;;;5001090;28;20034;-60
2023/12/03 09:23:17;;;;;;;6.80;5.13;;;;;;;;;;5017501;28;20030;-60
2023/12/03 09:25:43;;;;;;;5.90;5.32;;;;;;;;;;5017478;28;20034;-60
2023/12/03 09:28:08;;;;;;;5.65;4.68;;;;;;;;;;5017136;28;20473;-60
2023/12/03 09:30:34;;;;;;;7.18;5.38;;;;;;;;;;4999547;28;20483;-60
2023/12/03 09:32:59;;;;;;;6.68;5.97;;;;;;;;;;5017598;28;20065;-60
2023/12/03 09:35:29;;;;;;;6.40;5.32;;;;;;;;;;5016981;28;20033;-59
2023/12/03 09:37:54;;;;;;;5.55;4.95;;;;;;;;;;5016976;28;20048;-60
2023/12/03 09:40:20;;;;;;;5.60;5.03;;;;;;;;;;5016843;28;20029;-60
2023/12/03 09:42:46;;;;;;;6.03;5.10;;;;;;;;;;5017611;28;20460;-60
2023/12/03 09:45:13;;;;;;;6.25;5.60;;;;;;;;;;5016801;28;20108;-60
2023/12/03 09:47:40;;;;;;;4.65;4.20;;;;;;;;;;5016869;28;20038;-60
2023/12/03 09:50:06;;;;;;;6.38;5.18;;;;;;;;;;5017287;28;20034;-60
2023/12/03 09:52:35;;;;;;;7.07;5.40;;;;;;;;;;5017255;28;20029;-60
2023/12/03 09:55:00;;;;;;;6.60;5.05;;;;;;;;;;5016968;28;20042;-60
2023/12/03 09:57:29;;;;;;;6.63;4.65;;;;;;;;;;5016992;28;20102;-60
2023/12/03 10:00:00;;;;;;;5.63;4.63;;;;;;;;;;5016993;28;20525;-60
2023/12/03 10:02:28;;;;;;;3.88;3.55;;;;;;;;;;5016835;28;20072;-59
2023/12/03 10:04:54;;;;;;;5.95;4.50;;;;;;;;;;5016890;28;20034;-60
2023/12/03 10:07:22;;;;;;;4.60;4.07;;;;;;;;;;5027200;23;20405;-64
2023/12/03 10:09:48;;;;;;;5.38;4.28;;;;;;;;;;5016680;28;20029;-59
2023/12/03 10:12:16;;;;;;;5.28;4.55;;;;;;;;;;5016437;28;20384;-59
2023/12/03 10:14:42;;;;;;;5.00;4.20;;;;;;;;;;5015074;28;20025;-60
2023/12/03 10:17:08;;;;;;;4.35;3.95;;;;;;;;;;5016639;28;20026;-60
2023/12/03 10:19:33;;;;;;;5.53;4.35;;;;;;;;;;5015199;28;20044;-60
2023/12/03 10:21:59;;;;;;;6.88;4.50;;;;;;;;;;5016459;28;20030;-60
2023/12/03 10:24:24;;;;;;;5.78;4.25;;;;;;;;;;5016880;28;20047;-60
2023/12/03 10:26:51;;;;;;;4.60;4.15;;;;;;;;;;5015983;28;20041;-60
2023/12/03 10:29:19;;;;;;;5.80;4.45;;;;;;;;;;5016257;28;20052;-60
2023/12/03 10:31:49;;;;;;;3.83;3.45;;;;;;;;;;4998916;28;20022;-60
2023/12/03 10:34:14;;;;;;;4.22;3.83;;;;;;;;;;5016287;28;20114;-60
2023/12/03 10:36:42;;;;;;;6.13;4.82;;;;;;;;;;5016214;28;20072;-60
2023/12/03 10:39:16;;;;;;;4.97;4.47;;;;;;;;;;5016146;28;20063;-60
2023/12/03 10:41:45;;;;;;;5.13;4.63;;;;;;;;;;5016565;28;20037;-60
2023/12/03 10:44:18;;;;;;;4.50;4.10;;;;;;;;;;5014086;28;20391;-60
2023/12/03 10:46:44;;;;;;;6.82;4.50;;;;;;;;;;4997706;28;20397;-60
2023/12/03 10:49:14;;;;;;;4.85;4.13;;;;;;;;;;5015566;28;20026;-60
2023/12/03 10:51:43;;;;;;;4.90;3.83;;;;;;;;;;4998016;28;20018;-60
2023/12/03 10:54:12;;;;;;;4.28;3.88;;;;;;;;;;4997785;28;20034;-60
2023/12/03 10:56:37;;;;;;;5.85;4.20;;;;;;;;;;5015498;28;20033;-60
2023/12/03 10:59:11;;;;;;;5.57;4.32;;;;;;;;;;5015239;28;20034;-60
2023/12/03 11:01:43;;;;;;;4.90;4.45;;;;;;;;;;5015286;28;20650;-60
2023/12/03 11:04:14;;;;;;;3.75;3.30;;;;;;;;;;5013514;28;20030;-60
2023/12/03 11:06:40;;;;;;;4.18;3.78;;;;;;;;;;5014991;28;20034;-60
2023/12/03 11:09:07;;;;;;;4.45;4.00;;;;;;;;;;5013821;28;20021;-59
2023/12/03 11:11:33;;;;;;;4.80;4.20;;;;;;;;;;5015069;28;20030;-60
2023/12/03 11:13:59;;;;;;;4.70;4.20;;;;;;;;;;5015320;28;20022;-60
2023/12/03 11:16:27;;;;;;;4.82;4.03;;;;;;;;;;4997440;28;20456;-60
2023/12/03 11:18:58;;;;;;;5.57;4.38;;;;;;;;;;5015047;28;20084;-60
2023/12/03 11:21:23;;;;;;;4.97;3.92;;;;;;;;;;5014877;28;20026;-60
2023/12/03 11:23:49;;;;;;;7.18;4.97;;;;;;;;;;5014499;28;20534;-60
2023/12/03 11:26:15;;;;;;;5.05;4.55;;;;;;;;;;5014514;28;20053;-60
2023/12/03 11:28:53;;;;;;;4.72;4.20;;;;;;;;;;5014190;28;20029;-60
2023/12/03 11:31:19;;;;;;;4.43;4.05;;;;;;;;;;5013458;28;20049;-60
2023/12/03 11:33:51;;;;;;;4.40;3.88;;;;;;;;;;5014703;28;20030;-60
2023/12/03 11:36:18;;;;;;;6.22;4.68;;;;;;;;;;5014697;28;20061;-60
2023/12/03 11:38:43;;;;;;;6.50;4.93;;;;;;;;;;5014550;28;20419;-60
2023/12/03 11:41:09;;;;;;;5.13;4.53;;;;;;;;;;5014565;28;20030;-59
2023/12/03 11:43:35;;;;;;;4.03;3.60;;;;;;;;;;5012932;28;20034;-59
2023/12/03 11:46:01;;;;;;;6.03;4.13;;;;;;;;;;5014077;28;20018;-59
2023/12/03 11:48:33;;;;;;;4.88;3.78;;;;;;;;;;5014429;28;20389;-59
2023/12/03 11:50:58;;;;;;;4.40;3.97;;;;;;;;;;5013006;28;20022;-59
2023/12/03 11:53:44;;;;;;;6.63;4.68;;;;;;;;;;5014348;28;20021;-59
2023/12/03 11:56:09;;;;;;;4.78;4.38;;;;;;;;;;5006967;28;20535;-59
2023/12/03 11:58:35;;;;;;;4.72;4.15;;;;;;;;;;5013704;28;20090;-59
2023/12/03 12:01:00;;;;;;;5.88;4.43;;;;;;;;;;5014225;28;20029;-59
2023/12/03 12:03:26;;;;;;;5.15;4.43;;;;;;;;;;4996411;28;20030;-59
2023/12/03 12:05:52;;;;;;;5.80;4.55;;;;;;;;;;5013976;28;20036;-59
2023/12/03 12:08:20;;;;;;;4.70;3.70;;;;;;;;;;5013091;28;20070;-59
2023/12/03 12:10:45;;;;;;;5.38;3.85;;;;;;;;;;4996055;28;20034;-59
2023/12/03 12:13:10;;;;;;;4.78;3.88;;;;;;;;;;4996551;28;20029;-59
2023/12/03 12:15:37;;;;;;;7.35;4.40;;;;;;;;;;5014086;28;20048;-59
2023/12/03 12:18:03;;;;;;;5.07;3.85;;;;;;;;;;5013780;28;20022;-59
2023/12/03 12:20:30;;;;;;;4.10;3.45;;;;;;;;;;4996412;28;20612;-59
2023/12/03 12:22:56;;;;;;;5.22;4.55;;;;;;;;;;5013849;28;20135;-59
2023/12/03 12:25:23;;;;;;;6.43;4.18;;;;;;;;;;4996151;28;20045;-59
2023/12/03 12:27:50;;;;;;;6.85;4.70;;;;;;;;;;5014088;28;20029;-59
2023/12/03 12:30:27;;;;;;;3.63;3.28;;;;;;;;;;5013975;28;20022;-59
2023/12/03 12:32:52;;;;;;;4.28;3.72;;;;;;;;;;5014040;28;20026;-59
2023/12/03 12:35:22;;;;;;;5.35;4.38;;;;;;;;;;5013593;28;20080;-59
2023/12/03 12:38:08;;;;;;;5.00;3.63;;;;;;;;;;5013761;28;20068;-59
2023/12/03 12:40:38;;;;;;;4.47;3.63;;;;;;;;;;5014388;28;20080;-59
2023/12/03 12:43:11;;;;;;;4.82;3.83;;;;;;;;;;5014160;28;20030;-59
2023/12/03 12:45:39;;;;;;;4.93;4.07;;;;;;;;;;5014415;28;20029;-59
2023/12/03 12:48:25;;;;;;;5.97;3.75;;;;;;;;;;4996359;28;20014;-59
2023/12/03 12:50:51;;;;;;;4.75;3.65;;;;;;;;;;4996068;28;20100;-60
2023/12/03 12:53:16;;;;;;;5.68;4.13;;;;;;;;;;4996842;28;20018;-59
2023/12/03 12:55:42;;;;;;;5.20;4.22;;;;;;;;;;5012904;28;20061;-59
2023/12/03 12:58:08;;;;;;;6.60;4.60;;;;;;;;;;5013827;28;20088;-59
2023/12/03 13:00:34;;;;;;;4.00;3.67;;;;;;;;;;5014019;28;20030;-59
2023/12/03 13:03:00;;;;;;;5.75;4.45;;;;;;;;;;5013452;28;20135;-59
2023/12/03 13:05:26;;;;;;;7.88;5.95;;;;;;;;;;5013669;28;20076;-59
2023/12/03 13:07:52;;;;;;;5.47;4.32;;;;;;;;;;5013185;28;20054;-59
2023/12/03 13:10:17;;;;;;;3.63;3.28;;;;;;;;;;5012955;28;20033;-59
2023/12/03 13:12:43;;;;;;;4.45;3.75;;;;;;;;;;4994903;28;20428;-59
2023/12/03 13:15:11;;;;;;;5.53;4.40;;;;;;;;;;5012603;28;20041;-59
2023/12/03 13:17:52;;;;;;;5.45;4.35;;;;;;;;;;5004078;28;20044;-60
2023/12/03 13:20:18;;;;;;;4.90;3.90;;;;;;;;;;4992577;28;20054;-59
2023/12/03 13:22:49;;;;;;;6.13;4.68;;;;;;;;;;4992762;28;20061;-59
2023/12/03 13:25:18;;;;;;;5.90;4.53;;;;;;;;;;4999305;28;20124;-59
2023/12/03 13:27:44;;;;;;;6.10;4.90;;;;;;;;;;5012631;28;20034;-59
2023/12/03 13:30:09;;;;;;;6.50;5.18;;;;;;;;;;5013325;28;20373;-59
2023/12/03 13:32:40;;;;;;;6.00;4.72;;;;;;;;;;4968723;28;20116;-59
2023/12/03 13:35:06;;;;;;;5.80;4.70;;;;;;;;;;4992895;28;20037;-59
2023/12/03 13:37:32;;;;;;;8.73;5.38;;;;;;;;;;4991917;28;20037;-60
2023/12/03 13:39:57;;;;;;;6.18;5.22;;;;;;;;;;4992593;28;20023;-59
2023/12/03 13:42:22;;;;;;;7.05;5.47;;;;;;;;;;4993064;28;20045;-59
2023/12/03 13:44:48;;;;;;;8.98;6.05;;;;;;;;;;4993123;28;20429;-59
2023/12/03 13:47:15;;;;;;;6.72;5.20;;;;;;;;;;4993279;28;20406;-59
2023/12/03 13:49:40;;;;;;;5.13;4.30;;;;;;;;;;4993209;28;20520;-59
2023/12/03 13:52:05;;;;;;;7.30;4.90;;;;;;;;;;4976175;28;20042;-59
2023/12/03 13:54:31;;;;;;;5.95;5.35;;;;;;;;;;4995647;28;20027;-59
2023/12/03 13:56:56;;;;;;;7.22;4.53;;;;;;;;;;4996902;28;20038;-60
2023/12/03 13:59:22;;;;;;;6.78;5.60;;;;;;;;;;4963273;28;20489;-59
2023/12/03 14:01:47;;;;;;;6.63;5.05;;;;;;;;;;4996674;28;20030;-60
2023/12/03 14:04:12;;;;;;;8.05;5.68;;;;;;;;;;4996650;28;20065;-59
2023/12/03 14:06:38;;;;;;;9.07;5.82;;;;;;;;;;4975545;28;20038;-59
2023/12/03 14:09:03;;;;;;;10.43;6.75;;;;;;;;;;4959976;28;20034;-59
2023/12/03 14:11:32;;;;;;;10.32;6.72;;;;;;;;;;4976023;28;20366;-59
2023/12/03 14:13:59;;;;;;;9.90;7.05;;;;;;;;;;4977052;28;20366;-59
2023/12/03 14:16:24;;;;;;;8.27;6.43;;;;;;;;;;4975940;28;20040;-59
2023/12/03 14:18:50;;;;;;;10.10;7.43;;;;;;;;;;4977099;28;20031;-60
2023/12/03 14:21:16;;;;;;;12.02;7.50;;;;;;;;;;4975361;28;20445;-59
2023/12/03 14:23:41;;;;;;;14.15;8.70;;;;;;;;;;4976389;28;20050;-59
2023/12/03 14:26:07;;;;;;;10.68;7.82;;;;;;;;;;4976410;28;20039;-59
2023/12/03 14:28:36;;;;;;;10.57;7.25;;;;;;;;;;4977116;28;20491;-59
2023/12/03 14:31:02;;;;;;;12.23;7.63;;;;;;;;;;4976414;28;20025;-59